Hovedside
METAR-TAF:

METAR-TAF

Lufthavner :

Sindal, Danmark

breddegrad: 57-30N, lengdegrad: 010-13E, høyde over havet: 28 m

Gjeldene værobservasjon

Denne rapporten ble laget for 10 timer og 57 minutter siden, klokken 12:50 UTC
Vind 10 kt fra Nord-nordøst
Temperatur 5°C
Luftfuktighet 81%
Trykk 1021 hPa
Sikt 10 km eller mer
Brutte skyer i en høyde av 2100 ft

METAR: EKSN 111250Z 03010KT 9999 BKN021 05/02 Q1021

Tid: 00:47 (23:47 UTC)

Varsel

Denne rapporten ble laget for 14 timer og 49 minutter siden, klokken 08:58 UTC
Varsel gyldig fra 11. klokken 09 UTC til 11. klokken 15 UTC
Vind 8 kt fra Nord-nordøst
Sikt 10 km eller mer
Spredte skyer i en høyde av 2500 ft

TAF: EKSN 110858Z 1109/1115 02008KT 9999 SCT025

Værobservasjoner og værvarsel for over 4000 flyplasser (METAR- og TAF-rapporter).

Tilgjengelige stasjoner er representert av de røde og gule prikkene på kartet.

Hold musepekeren over prikken for å se navnet på stasjonen.

Klikk så for å se værobservasjoner og -varsler.

For å forandre kartet kan du klikke på den grønne knappen med svart kryss for å zoome inn, på den grønne knappen med strek for å zoome ut, eller på de grønne pilene for å se tilstøtende kart.


METAR-TAF: